»·PEaware :: UAL180 KRNO-KSFO

UAL180 :: KRNO-KSFO

FLIGHT INFORMATION

Flight Status: Arrived
Operator:
United Airlines
More flights by this operator :: More flights under this callsign
Pilot: Etienne B. (28927)
Aircraft: AIRBUS A320
(A320)
More flights by this aircraft type
Origin: KRNO Reno/Tahoe Intl
United States
Destination: KSFO San Francisco Intl
United States
More flights between these airports :: More routes between these airports
Route: +PVINE3 CRDDZ LEGGS BDEGA3
File this flight plan on PilotEdge
Remarks: RMK / SIMBRIEF
Altitude:
(Current/Filed)
32,000ft
Speed:
(Current/Filed)
462kts
Departed: 10-May-20 05:22 PM
Arrived: 10-May-20 06:20 PM
Distance/Time
Traveled:
167nm/0:58
Distance/Time
To Go:
Arrived

Flight Plot

Page will automatically refresh every two minutes.

Flight plan parsing failed; only flown route is shown


Map Options




Map Legend


Flown Route
Filed Route
Departure Airport
Arrival Airport
Navaid (VOR, NDB)
Fix

Horizontal Profiles

Position Reports

Time Latitude Longitude Heading Altitude Ground
Speed
10-May-20 17:01 39.504425 -119.773276 0 4424ft 0kts
10-May-20 17:02 39.504425 -119.773276 0 4424ft 0kts
10-May-20 17:02 39.504425 -119.773276 0 4424ft 0kts
10-May-20 17:03 39.504425 -119.773276 0 4424ft 0kts
10-May-20 17:04 39.504425 -119.773276 0 4424ft 0kts
10-May-20 17:05 39.504425 -119.773276 0 4424ft 0kts
10-May-20 17:06 39.504425 -119.773276 0 4424ft 0kts
10-May-20 17:07 39.504425 -119.773276 0 4424ft 0kts
10-May-20 17:08 39.504425 -119.773276 0 4424ft 0kts
10-May-20 17:09 39.504326 -119.773277 0 4424ft 2kts
10-May-20 17:10 39.503852 -119.773567 55 4424ft 2kts
10-May-20 17:11 39.503750 -119.774037 91 4424ft 0kts
10-May-20 17:12 39.503749 -119.774023 91 4424ft 1kts
10-May-20 17:13 39.503732 -119.772878 90 4424ft 0kts
10-May-20 17:14 39.503212 -119.771529 176 4424ft 9kts
10-May-20 17:15 39.498273 -119.771547 178 4424ft 19kts
10-May-20 17:16 39.493546 -119.771540 180 4424ft 16kts
10-May-20 17:17 39.489550 -119.771495 180 4424ft 12kts
10-May-20 17:18 39.485967 -119.771571 181 4424ft 15kts
10-May-20 17:19 39.483774 -119.770641 88 4424ft 0kts
10-May-20 17:20 39.483786 -119.770034 88 4424ft 7kts
10-May-20 17:21 39.496996 -119.769354 1 4424ft 148kts
10-May-20 17:22 39.549164 -119.767333 359 6118ft 213kts
10-May-20 17:23 39.606276 -119.779112 297 8338ft 211kts
10-May-20 17:24 39.635219 -119.856825 291 9882ft 275kts
10-May-20 17:25 39.665372 -119.960987 263 10075ft 330kts
10-May-20 17:26 39.635698 -120.073682 247 11577ft 336kts
10-May-20 17:27 39.602570 -120.188372 247 13937ft 346kts
10-May-20 17:28 39.568424 -120.306562 247 16113ft 356kts
10-May-20 17:29 39.533245 -120.427855 247 18146ft 365kts
10-May-20 17:30 39.496885 -120.552644 247 19962ft 374kts
10-May-20 17:31 39.459626 -120.679915 246 21599ft 383kts
10-May-20 17:32 39.421488 -120.809558 246 23068ft 392kts
10-May-20 17:33 39.382163 -120.942582 246 24428ft 400kts
10-May-20 17:34 39.341840 -121.077254 243 25615ft 408kts
10-May-20 17:35 39.273069 -121.193694 229 26655ft 415kts
10-May-20 17:36 39.198152 -121.308476 229 27713ft 421kts
10-May-20 17:37 39.122363 -121.424278 230 28663ft 427kts
10-May-20 17:38 39.045524 -121.541255 230 29745ft 428kts
10-May-20 17:39 38.969590 -121.656390 230 31198ft 417kts
10-May-20 17:40 38.895908 -121.767765 232 31906ft 412kts
10-May-20 17:41 38.825137 -121.874392 232 31914ft 411kts
10-May-20 17:42 38.750639 -121.986287 232 31923ft 412kts
10-May-20 17:43 38.676499 -122.097077 232 31946ft 413kts
10-May-20 17:44 38.602464 -122.207399 232 31466ft 398kts
10-May-20 17:45 38.532668 -122.311034 231 28453ft 374kts
10-May-20 17:46 38.469772 -122.404099 231 26834ft 322kts
10-May-20 17:47 38.413652 -122.487490 231 25393ft 309kts
10-May-20 17:48 38.358376 -122.569663 230 23935ft 303kts
10-May-20 17:49 38.304313 -122.649741 230 22504ft 296kts
10-May-20 17:50 38.251110 -122.728346 229 21081ft 291kts
10-May-20 17:51 38.177920 -122.754496 170 19603ft 298kts
10-May-20 17:52 38.098133 -122.730849 170 18185ft 299kts
10-May-20 17:53 38.014888 -122.706636 170 16696ft 307kts
10-May-20 17:54 37.932942 -122.682860 169 15243ft 298kts
10-May-20 17:55 37.861385 -122.633059 143 13809ft 300kts
10-May-20 17:56 37.798935 -122.566649 142 12435ft 292kts
10-May-20 17:57 37.738486 -122.502670 142 11136ft 286kts
10-May-20 17:58 37.678019 -122.438415 142 11028ft 288kts
10-May-20 17:59 37.617112 -122.373866 145 11019ft 287kts
10-May-20 18:00 37.547085 -122.328955 156 11033ft 283kts
10-May-20 18:01 37.477716 -122.285602 156 9626ft 276kts
10-May-20 18:02 37.414550 -122.244414 154 8171ft 247kts
10-May-20 18:03 37.355497 -122.202830 154 6359ft 243kts
10-May-20 18:04 37.297127 -122.161372 154 6014ft 248kts
10-May-20 18:05 37.237078 -122.119232 154 6015ft 248kts
10-May-20 18:06 37.177531 -122.077349 154 6025ft 246kts
10-May-20 18:07 37.144208 -122.012645 67 6046ft 255kts
10-May-20 18:08 37.198439 -121.985277 353 6035ft 241kts
10-May-20 18:09 37.258630 -121.988405 354 6021ft 240kts
10-May-20 18:10 37.322561 -121.991342 354 6015ft 240kts
10-May-20 18:11 37.379532 -122.027214 323 5170ft 230kts
10-May-20 18:12 37.432686 -122.070448 324 4108ft 229kts
10-May-20 18:13 37.483288 -122.117461 314 3620ft 223kts
10-May-20 18:14 37.522720 -122.170506 308 3219ft 189kts
10-May-20 18:15 37.551114 -122.216469 300 2388ft 151kts
10-May-20 18:16 37.571208 -122.261071 294 1671ft 143kts
10-May-20 18:17 37.589797 -122.305595 293 970ft 146kts
10-May-20 18:18 37.607317 -122.347784 294 180ft 129kts
10-May-20 18:19 37.619149 -122.376189 293 25ft 38kts
10-May-20 18:20 37.619789 -122.378942 247 30ft 0kts
10-May-20 18:21 37.619121 -122.380715 286 32ft 4kts
10-May-20 18:22 37.619085 -122.382911 262 32ft 1kts
10-May-20 18:23 37.619190 -122.383558 286 32ft 0kts

Navigation Log

Ident Type
Flight plan parsing failed, navigation log unavailable